sensor_id;sensor_type;location;lat;lon;timestamp;temperature;humidity
10702;DHT22;5402;50.004;8.246;2022-08-19T00:00:50;21.60;99.90
10702;DHT22;5402;50.004;8.246;2022-08-19T00:03:35;21.70;99.90
10702;DHT22;5402;50.004;8.246;2022-08-19T00:06:09;21.80;99.90
10702;DHT22;5402;50.004;8.246;2022-08-19T00:08:36;21.70;99.90
10702;DHT22;5402;50.004;8.246;2022-08-19T00:11:05;21.70;99.90
10702;DHT22;5402;50.004;8.246;2022-08-19T00:13:43;21.80;99.90
10702;DHT22;5402;50.004;8.246;2022-08-19T00:16:32;21.80;99.90
10702;DHT22;5402;50.004;8.246;2022-08-19T00:19:41;21.80;99.90
10702;DHT22;5402;50.004;8.246;2022-08-19T00:22:02;21.90;99.90
10702;DHT22;5402;50.004;8.246;2022-08-19T00:24:31;21.70;99.90
10702;DHT22;5402;50.004;8.246;2022-08-19T00:27:07;21.80;99.90
10702;DHT22;5402;50.004;8.246;2022-08-19T00:30:06;21.80;99.90
10702;DHT22;5402;50.004;8.246;2022-08-19T00:32:50;21.80;99.90
10702;DHT22;5402;50.004;8.246;2022-08-19T00:35:36;21.70;99.90
10702;DHT22;5402;50.004;8.246;2022-08-19T00:38:17;21.70;99.90
10702;DHT22;5402;50.004;8.246;2022-08-19T00:40:48;21.70;99.90
10702;DHT22;5402;50.004;8.246;2022-08-19T00:43:21;21.80;99.90
10702;DHT22;5402;50.004;8.246;2022-08-19T00:45:53;21.70;99.90
10702;DHT22;5402;50.004;8.246;2022-08-19T00:48:27;21.70;99.90
10702;DHT22;5402;50.004;8.246;2022-08-19T00:51:04;21.60;99.90
10702;DHT22;5402;50.004;8.246;2022-08-19T00:53:43;21.60;99.90
10702;DHT22;5402;50.004;8.246;2022-08-19T00:56:20;21.60;99.90
10702;DHT22;5402;50.004;8.246;2022-08-19T00:58:50;21.60;99.90
10702;DHT22;5402;50.004;8.246;2022-08-19T01:01:18;21.60;99.90
10702;DHT22;5402;50.004;8.246;2022-08-19T01:03:52;21.60;99.90
10702;DHT22;5402;50.004;8.246;2022-08-19T01:06:37;21.50;99.90
10702;DHT22;5402;50.004;8.246;2022-08-19T01:09:12;21.50;99.90
10702;DHT22;5402;50.004;8.246;2022-08-19T01:11:58;21.50;99.90
10702;DHT22;5402;50.004;8.246;2022-08-19T01:14:59;21.50;99.90
10702;DHT22;5402;50.004;8.246;2022-08-19T01:17:29;21.40;99.90
10702;DHT22;5402;50.004;8.246;2022-08-19T01:26:21;21.40;99.90
10702;DHT22;5402;50.004;8.246;2022-08-19T01:29:05;21.40;99.90
10702;DHT22;5402;50.004;8.246;2022-08-19T01:31:59;21.40;99.90
10702;DHT22;5402;50.004;8.246;2022-08-19T01:34:35;21.30;99.90
10702;DHT22;5402;50.004;8.246;2022-08-19T01:37:24;21.30;99.90
10702;DHT22;5402;50.004;8.246;2022-08-19T01:39:53;21.40;99.90
10702;DHT22;5402;50.004;8.246;2022-08-19T01:42:47;21.40;99.90
10702;DHT22;5402;50.004;8.246;2022-08-19T01:45:21;21.40;99.90
10702;DHT22;5402;50.004;8.246;2022-08-19T01:48:03;21.40;99.90
10702;DHT22;5402;50.004;8.246;2022-08-19T01:50:46;21.50;99.90
10702;DHT22;5402;50.004;8.246;2022-08-19T01:53:18;21.40;99.90
10702;DHT22;5402;50.004;8.246;2022-08-19T01:56:14;21.40;99.90
10702;DHT22;5402;50.004;8.246;2022-08-19T01:59:00;21.30;99.90
10702;DHT22;5402;50.004;8.246;2022-08-19T02:01:32;21.40;99.90
10702;DHT22;5402;50.004;8.246;2022-08-19T02:04:01;21.40;99.90
10702;DHT22;5402;50.004;8.246;2022-08-19T02:06:30;21.40;99.90
10702;DHT22;5402;50.004;8.246;2022-08-19T02:09:07;21.40;99.90
10702;DHT22;5402;50.004;8.246;2022-08-19T02:11:43;21.30;99.90
10702;DHT22;5402;50.004;8.246;2022-08-19T02:14:59;21.40;99.90
10702;DHT22;5402;50.004;8.246;2022-08-19T02:17:38;21.30;99.90
10702;DHT22;5402;50.004;8.246;2022-08-19T02:20:21;21.30;99.90
10702;DHT22;5402;50.004;8.246;2022-08-19T02:22:49;21.40;99.90
10702;DHT22;5402;50.004;8.246;2022-08-19T02:25:20;21.30;99.90
10702;DHT22;5402;50.004;8.246;2022-08-19T02:28:00;21.30;99.90
10702;DHT22;5402;50.004;8.246;2022-08-19T02:30:30;21.20;99.90
10702;DHT22;5402;50.004;8.246;2022-08-19T02:33:40;21.30;99.90
10702;DHT22;5402;50.004;8.246;2022-08-19T02:36:06;21.30;99.90
10702;DHT22;5402;50.004;8.246;2022-08-19T02:38:40;21.20;99.90
10702;DHT22;5402;50.004;8.246;2022-08-19T02:41:23;21.10;99.90
10702;DHT22;5402;50.004;8.246;2022-08-19T02:43:53;21.20;99.90
10702;DHT22;5402;50.004;8.246;2022-08-19T02:46:39;21.10;99.90
10702;DHT22;5402;50.004;8.246;2022-08-19T02:49:09;21.10;99.90
10702;DHT22;5402;50.004;8.246;2022-08-19T02:52:02;21.00;99.90
10702;DHT22;5402;50.004;8.246;2022-08-19T02:54:35;21.00;99.90
10702;DHT22;5402;50.004;8.246;2022-08-19T02:57:26;21.00;99.90
10702;DHT22;5402;50.004;8.246;2022-08-19T03:00:26;21.00;99.90
10702;DHT22;5402;50.004;8.246;2022-08-19T03:03:23;20.90;99.90
10702;DHT22;5402;50.004;8.246;2022-08-19T03:06:01;20.80;99.90
10702;DHT22;5402;50.004;8.246;2022-08-19T03:08:36;20.80;99.90
10702;DHT22;5402;50.004;8.246;2022-08-19T03:13:27;20.80;99.90
10702;DHT22;5402;50.004;8.246;2022-08-19T03:14:13;20.60;99.90
10702;DHT22;5402;50.004;8.246;2022-08-19T03:20:10;20.60;99.90
10702;DHT22;5402;50.004;8.246;2022-08-19T03:22:45;20.70;99.90
10702;DHT22;5402;50.004;8.246;2022-08-19T03:25:36;20.50;99.90
10702;DHT22;5402;50.004;8.246;2022-08-19T03:28:38;20.50;99.90
10702;DHT22;5402;50.004;8.246;2022-08-19T03:31:17;20.50;99.90
10702;DHT22;5402;50.004;8.246;2022-08-19T03:33:48;20.50;99.90
10702;DHT22;5402;50.004;8.246;2022-08-19T03:36:31;20.40;99.90
10702;DHT22;5402;50.004;8.246;2022-08-19T03:39:02;20.50;99.90
10702;DHT22;5402;50.004;8.246;2022-08-19T03:41:53;20.40;99.90
10702;DHT22;5402;50.004;8.246;2022-08-19T03:44:57;20.40;99.90
10702;DHT22;5402;50.004;8.246;2022-08-19T03:47:30;20.40;99.90
10702;DHT22;5402;50.004;8.246;2022-08-19T03:50:04;20.50;99.90
10702;DHT22;5402;50.004;8.246;2022-08-19T03:52:37;20.40;99.90
10702;DHT22;5402;50.004;8.246;2022-08-19T03:55:09;20.30;99.90
10702;DHT22;5402;50.004;8.246;2022-08-19T03:57:44;20.30;99.90
10702;DHT22;5402;50.004;8.246;2022-08-19T04:00:31;20.30;99.90
10702;DHT22;5402;50.004;8.246;2022-08-19T04:03:09;20.20;99.90
10702;DHT22;5402;50.004;8.246;2022-08-19T04:05:53;20.20;99.90
10702;DHT22;5402;50.004;8.246;2022-08-19T04:08:29;20.20;99.90
10702;DHT22;5402;50.004;8.246;2022-08-19T04:11:34;20.20;99.90
10702;DHT22;5402;50.004;8.246;2022-08-19T04:14:10;20.10;99.90
10702;DHT22;5402;50.004;8.246;2022-08-19T04:16:51;20.10;99.90
10702;DHT22;5402;50.004;8.246;2022-08-19T04:19:39;20.10;99.90
10702;DHT22;5402;50.004;8.246;2022-08-19T04:22:18;20.10;99.90
10702;DHT22;5402;50.004;8.246;2022-08-19T04:28:21;20.00;99.90
10702;DHT22;5402;50.004;8.246;2022-08-19T04:31:21;20.00;99.90
10702;DHT22;5402;50.004;8.246;2022-08-19T04:33:51;20.10;99.90
10702;DHT22;5402;50.004;8.246;2022-08-19T04:36:32;19.90;99.90
10702;DHT22;5402;50.004;8.246;2022-08-19T04:39:21;20.10;99.90
10702;DHT22;5402;50.004;8.246;2022-08-19T04:42:29;19.90;99.90
10702;DHT22;5402;50.004;8.246;2022-08-19T04:48:14;20.00;99.90
10702;DHT22;5402;50.004;8.246;2022-08-19T04:50:58;20.00;99.90
10702;DHT22;5402;50.004;8.246;2022-08-19T04:53:34;20.00;99.90
10702;DHT22;5402;50.004;8.246;2022-08-19T04:56:22;20.00;99.90
10702;DHT22;5402;50.004;8.246;2022-08-19T04:58:53;20.00;99.90
10702;DHT22;5402;50.004;8.246;2022-08-19T05:01:23;20.00;99.90
10702;DHT22;5402;50.004;8.246;2022-08-19T05:03:55;20.00;99.90
10702;DHT22;5402;50.004;8.246;2022-08-19T05:06:26;20.10;99.90
10702;DHT22;5402;50.004;8.246;2022-08-19T05:08:56;20.00;99.90
10702;DHT22;5402;50.004;8.246;2022-08-19T05:11:31;20.10;99.90
10702;DHT22;5402;50.004;8.246;2022-08-19T05:14:01;20.10;99.90
10702;DHT22;5402;50.004;8.246;2022-08-19T05:16:51;20.10;99.90
10702;DHT22;5402;50.004;8.246;2022-08-19T05:19:32;20.10;99.90
10702;DHT22;5402;50.004;8.246;2022-08-19T05:22:18;20.20;99.90
10702;DHT22;5402;50.004;8.246;2022-08-19T05:25:25;20.30;99.90
10702;DHT22;5402;50.004;8.246;2022-08-19T05:28:28;20.30;99.90
10702;DHT22;5402;50.004;8.246;2022-08-19T05:31:23;20.30;99.90
10702;DHT22;5402;50.004;8.246;2022-08-19T05:34:00;20.40;99.90
10702;DHT22;5402;50.004;8.246;2022-08-19T05:36:37;20.40;99.90
10702;DHT22;5402;50.004;8.246;2022-08-19T05:39:12;20.50;99.90
10702;DHT22;5402;50.004;8.246;2022-08-19T05:42:51;20.50;99.90
10702;DHT22;5402;50.004;8.246;2022-08-19T05:44:56;20.60;99.90
10702;DHT22;5402;50.004;8.246;2022-08-19T05:47:40;20.70;99.90
10702;DHT22;5402;50.004;8.246;2022-08-19T05:50:08;20.80;99.90
10702;DHT22;5402;50.004;8.246;2022-08-19T05:52:49;20.80;99.90
10702;DHT22;5402;50.004;8.246;2022-08-19T05:58:26;21.10;99.90
10702;DHT22;5402;50.004;8.246;2022-08-19T06:01:04;21.00;99.90
10702;DHT22;5402;50.004;8.246;2022-08-19T06:03:37;21.10;99.90
10702;DHT22;5402;50.004;8.246;2022-08-19T06:06:15;21.20;99.90
10702;DHT22;5402;50.004;8.246;2022-08-19T06:09:17;21.30;99.90
10702;DHT22;5402;50.004;8.246;2022-08-19T06:12:11;21.50;99.90
10702;DHT22;5402;50.004;8.246;2022-08-19T06:14:38;21.50;99.90
10702;DHT22;5402;50.004;8.246;2022-08-19T06:17:10;21.50;99.90
10702;DHT22;5402;50.004;8.246;2022-08-19T06:19:50;21.50;99.90
10702;DHT22;5402;50.004;8.246;2022-08-19T06:22:25;21.50;99.90
10702;DHT22;5402;50.004;8.246;2022-08-19T06:24:56;21.60;99.90
10702;DHT22;5402;50.004;8.246;2022-08-19T06:27:26;21.60;99.90
10702;DHT22;5402;50.004;8.246;2022-08-19T06:33:48;21.80;99.90
10702;DHT22;5402;50.004;8.246;2022-08-19T06:39:09;21.90;99.90
10702;DHT22;5402;50.004;8.246;2022-08-19T06:41:37;21.90;99.90
10702;DHT22;5402;50.004;8.246;2022-08-19T06:44:13;22.10;99.90
10702;DHT22;5402;50.004;8.246;2022-08-19T06:47:21;22.20;99.90
10702;DHT22;5402;50.004;8.246;2022-08-19T06:49:59;22.50;99.90
10702;DHT22;5402;50.004;8.246;2022-08-19T06:52:32;22.50;99.90
10702;DHT22;5402;50.004;8.246;2022-08-19T06:55:00;22.50;99.90
10702;DHT22;5402;50.004;8.246;2022-08-19T06:57:28;22.60;99.90
10702;DHT22;5402;50.004;8.246;2022-08-19T07:00:02;22.70;99.90
10702;DHT22;5402;50.004;8.246;2022-08-19T07:02:29;22.80;99.90
10702;DHT22;5402;50.004;8.246;2022-08-19T07:04:57;22.80;99.90
10702;DHT22;5402;50.004;8.246;2022-08-19T07:07:27;22.90;99.90
10702;DHT22;5402;50.004;8.246;2022-08-19T07:09:56;23.00;99.90
10702;DHT22;5402;50.004;8.246;2022-08-19T07:12:30;23.00;99.90
10702;DHT22;5402;50.004;8.246;2022-08-19T07:15:12;23.10;99.90
10702;DHT22;5402;50.004;8.246;2022-08-19T07:17:48;23.30;99.90
10702;DHT22;5402;50.004;8.246;2022-08-19T07:20:50;23.30;99.90
10702;DHT22;5402;50.004;8.246;2022-08-19T07:23:31;23.50;99.90
10702;DHT22;5402;50.004;8.246;2022-08-19T07:26:05;23.40;99.90
10702;DHT22;5402;50.004;8.246;2022-08-19T07:28:33;23.60;99.90
10702;DHT22;5402;50.004;8.246;2022-08-19T07:31:05;23.70;99.90
10702;DHT22;5402;50.004;8.246;2022-08-19T07:33:36;23.70;99.90
10702;DHT22;5402;50.004;8.246;2022-08-19T07:36:24;23.90;99.90
10702;DHT22;5402;50.004;8.246;2022-08-19T07:38:57;23.80;99.90
10702;DHT22;5402;50.004;8.246;2022-08-19T07:41:26;23.80;99.90
10702;DHT22;5402;50.004;8.246;2022-08-19T07:43:57;23.80;99.90
10702;DHT22;5402;50.004;8.246;2022-08-19T07:46:27;24.00;99.90
10702;DHT22;5402;50.004;8.246;2022-08-19T07:48:55;24.00;99.90
10702;DHT22;5402;50.004;8.246;2022-08-19T07:51:27;24.00;99.90
10702;DHT22;5402;50.004;8.246;2022-08-19T07:53:54;24.10;99.70
10702;DHT22;5402;50.004;8.246;2022-08-19T07:56:21;24.20;99.80
10702;DHT22;5402;50.004;8.246;2022-08-19T07:58:52;24.30;99.60
10702;DHT22;5402;50.004;8.246;2022-08-19T08:01:21;24.40;99.30
10702;DHT22;5402;50.004;8.246;2022-08-19T08:03:51;24.50;99.20
10702;DHT22;5402;50.004;8.246;2022-08-19T08:06:37;24.50;99.20
10702;DHT22;5402;50.004;8.246;2022-08-19T08:09:23;24.30;99.00
10702;DHT22;5402;50.004;8.246;2022-08-19T08:11:52;24.40;99.00
10702;DHT22;5402;50.004;8.246;2022-08-19T08:17:52;24.50;99.10
10702;DHT22;5402;50.004;8.246;2022-08-19T08:20:23;24.50;98.90
10702;DHT22;5402;50.004;8.246;2022-08-19T08:22:53;24.50;98.60
10702;DHT22;5402;50.004;8.246;2022-08-19T08:25:37;24.50;98.50
10702;DHT22;5402;50.004;8.246;2022-08-19T08:28:07;24.50;98.70
10702;DHT22;5402;50.004;8.246;2022-08-19T08:30:34;24.50;98.50
10702;DHT22;5402;50.004;8.246;2022-08-19T08:33:04;24.70;98.40
10702;DHT22;5402;50.004;8.246;2022-08-19T08:35:35;24.70;98.10
10702;DHT22;5402;50.004;8.246;2022-08-19T08:38:03;24.90;98.10
10702;DHT22;5402;50.004;8.246;2022-08-19T08:40:37;24.80;98.10
10702;DHT22;5402;50.004;8.246;2022-08-19T08:43:13;24.90;98.00
10702;DHT22;5402;50.004;8.246;2022-08-19T08:45:52;24.70;97.80
10702;DHT22;5402;50.004;8.246;2022-08-19T08:48:44;24.90;97.70
10702;DHT22;5402;50.004;8.246;2022-08-19T08:51:16;24.90;97.70
10702;DHT22;5402;50.004;8.246;2022-08-19T08:53:53;25.20;97.30
10702;DHT22;5402;50.004;8.246;2022-08-19T08:56:22;25.40;96.90
10702;DHT22;5402;50.004;8.246;2022-08-19T08:58:54;25.50;96.90
10702;DHT22;5402;50.004;8.246;2022-08-19T09:01:23;25.60;96.50
10702;DHT22;5402;50.004;8.246;2022-08-19T09:03:52;25.50;96.80
10702;DHT22;5402;50.004;8.246;2022-08-19T09:06:28;25.40;96.80
10702;DHT22;5402;50.004;8.246;2022-08-19T09:09:04;25.50;97.20
10702;DHT22;5402;50.004;8.246;2022-08-19T09:11:41;25.70;96.50
10702;DHT22;5402;50.004;8.246;2022-08-19T09:14:31;26.10;96.20
10702;DHT22;5402;50.004;8.246;2022-08-19T09:16:59;25.90;96.00
10702;DHT22;5402;50.004;8.246;2022-08-19T09:19:26;25.50;96.30
10702;DHT22;5402;50.004;8.246;2022-08-19T09:22:08;25.20;96.30
10702;DHT22;5402;50.004;8.246;2022-08-19T09:24:39;25.30;96.40
10702;DHT22;5402;50.004;8.246;2022-08-19T09:27:09;25.70;95.90
10702;DHT22;5402;50.004;8.246;2022-08-19T09:29:42;26.00;95.10
10702;DHT22;5402;50.004;8.246;2022-08-19T09:32:08;26.30;94.90
10702;DHT22;5402;50.004;8.246;2022-08-19T09:34:38;26.50;94.80
10702;DHT22;5402;50.004;8.246;2022-08-19T09:37:08;26.50;94.80
10702;DHT22;5402;50.004;8.246;2022-08-19T09:39:37;26.60;94.80
10702;DHT22;5402;50.004;8.246;2022-08-19T09:42:13;26.30;94.50
10702;DHT22;5402;50.004;8.246;2022-08-19T09:44:41;26.40;94.60
10702;DHT22;5402;50.004;8.246;2022-08-19T09:47:11;26.40;94.00
10702;DHT22;5402;50.004;8.246;2022-08-19T09:49:42;26.40;93.60
10702;DHT22;5402;50.004;8.246;2022-08-19T09:52:12;26.50;93.70
10702;DHT22;5402;50.004;8.246;2022-08-19T09:54:42;26.50;93.00
10702;DHT22;5402;50.004;8.246;2022-08-19T09:57:10;26.60;93.20
10702;DHT22;5402;50.004;8.246;2022-08-19T09:59:43;26.60;93.20
10702;DHT22;5402;50.004;8.246;2022-08-19T10:02:12;26.80;92.50
10702;DHT22;5402;50.004;8.246;2022-08-19T10:04:53;26.90;92.40
10702;DHT22;5402;50.004;8.246;2022-08-19T10:07:44;27.00;91.90
10702;DHT22;5402;50.004;8.246;2022-08-19T10:10:14;26.90;91.50
10702;DHT22;5402;50.004;8.246;2022-08-19T10:12:44;26.80;92.20
10702;DHT22;5402;50.004;8.246;2022-08-19T10:15:35;26.70;91.70
10702;DHT22;5402;50.004;8.246;2022-08-19T10:18:04;26.90;91.40
10702;DHT22;5402;50.004;8.246;2022-08-19T10:20:31;26.90;91.30
10702;DHT22;5402;50.004;8.246;2022-08-19T10:23:07;27.00;91.10
10702;DHT22;5402;50.004;8.246;2022-08-19T10:25:38;27.10;90.80
10702;DHT22;5402;50.004;8.246;2022-08-19T10:28:10;27.20;91.20
10702;DHT22;5402;50.004;8.246;2022-08-19T10:30:43;27.40;91.00
10702;DHT22;5402;50.004;8.246;2022-08-19T10:33:29;27.40;90.80
10702;DHT22;5402;50.004;8.246;2022-08-19T10:36:01;27.60;90.60
10702;DHT22;5402;50.004;8.246;2022-08-19T10:38:28;27.50;90.30
10702;DHT22;5402;50.004;8.246;2022-08-19T10:41:11;27.50;90.50
10702;DHT22;5402;50.004;8.246;2022-08-19T10:47:02;27.50;90.20
10702;DHT22;5402;50.004;8.246;2022-08-19T10:55:57;27.70;89.30
10702;DHT22;5402;50.004;8.246;2022-08-19T10:58:55;27.70;89.60
10702;DHT22;5402;50.004;8.246;2022-08-19T11:01:58;27.90;88.50
10702;DHT22;5402;50.004;8.246;2022-08-19T11:05:14;27.90;88.00
10702;DHT22;5402;50.004;8.246;2022-08-19T11:13:55;27.80;87.20
10702;DHT22;5402;50.004;8.246;2022-08-19T11:16:27;27.80;87.80
10702;DHT22;5402;50.004;8.246;2022-08-19T11:22:51;27.80;86.20
10702;DHT22;5402;50.004;8.246;2022-08-19T11:28:21;27.80;86.00
10702;DHT22;5402;50.004;8.246;2022-08-19T11:30:51;27.70;85.30
10702;DHT22;5402;50.004;8.246;2022-08-19T11:33:26;27.70;84.70
10702;DHT22;5402;50.004;8.246;2022-08-19T11:36:16;27.80;83.70
10702;DHT22;5402;50.004;8.246;2022-08-19T11:38:46;28.00;84.00
10702;DHT22;5402;50.004;8.246;2022-08-19T11:41:22;28.00;83.10
10702;DHT22;5402;50.004;8.246;2022-08-19T11:43:54;28.10;83.30
10702;DHT22;5402;50.004;8.246;2022-08-19T11:46:40;28.10;83.50
10702;DHT22;5402;50.004;8.246;2022-08-19T11:52:40;28.00;83.80
10702;DHT22;5402;50.004;8.246;2022-08-19T11:55:35;28.20;82.70
10702;DHT22;5402;50.004;8.246;2022-08-19T11:58:37;28.20;81.90
10702;DHT22;5402;50.004;8.246;2022-08-19T12:01:29;28.30;82.10
10702;DHT22;5402;50.004;8.246;2022-08-19T12:04:19;28.40;82.10
10702;DHT22;5402;50.004;8.246;2022-08-19T12:06:52;28.50;83.20
10702;DHT22;5402;50.004;8.246;2022-08-19T12:12:19;28.70;81.60
10702;DHT22;5402;50.004;8.246;2022-08-19T12:14:46;28.80;80.90
10702;DHT22;5402;50.004;8.246;2022-08-19T12:17:40;28.40;81.20
10702;DHT22;5402;50.004;8.246;2022-08-19T12:20:29;28.40;81.30
10702;DHT22;5402;50.004;8.246;2022-08-19T12:34:17;28.10;82.30
10702;DHT22;5402;50.004;8.246;2022-08-19T12:47:12;28.50;81.60
10702;DHT22;5402;50.004;8.246;2022-08-19T12:49:42;28.50;81.00
10702;DHT22;5402;50.004;8.246;2022-08-19T12:59:02;28.50;80.00
10702;DHT22;5402;50.004;8.246;2022-08-19T13:15:38;28.40;79.80
10702;DHT22;5402;50.004;8.246;2022-08-19T13:19:21;28.30;80.30
10702;DHT22;5402;50.004;8.246;2022-08-19T13:22:25;28.40;79.60
10702;DHT22;5402;50.004;8.246;2022-08-19T16:12:09;28.80;74.80
10702;DHT22;5402;50.004;8.246;2022-08-19T16:14:36;28.80;75.30
10702;DHT22;5402;50.004;8.246;2022-08-19T16:17:04;28.90;74.90
10702;DHT22;5402;50.004;8.246;2022-08-19T16:19:47;28.90;74.70
10702;DHT22;5402;50.004;8.246;2022-08-19T16:22:13;28.80;74.80
10702;DHT22;5402;50.004;8.246;2022-08-19T16:24:55;28.90;74.90
10702;DHT22;5402;50.004;8.246;2022-08-19T16:27:29;29.00;74.30
10702;DHT22;5402;50.004;8.246;2022-08-19T16:29:56;29.00;74.00
10702;DHT22;5402;50.004;8.246;2022-08-19T16:32:24;28.90;74.00
10702;DHT22;5402;50.004;8.246;2022-08-19T16:34:51;28.90;74.50
10702;DHT22;5402;50.004;8.246;2022-08-19T16:37:18;28.90;74.50
10702;DHT22;5402;50.004;8.246;2022-08-19T16:39:46;28.90;74.40
10702;DHT22;5402;50.004;8.246;2022-08-19T16:42:13;28.90;73.80
10702;DHT22;5402;50.004;8.246;2022-08-19T16:44:43;28.90;74.20
10702;DHT22;5402;50.004;8.246;2022-08-19T16:47:10;29.00;74.20
10702;DHT22;5402;50.004;8.246;2022-08-19T16:49:38;28.90;74.90
10702;DHT22;5402;50.004;8.246;2022-08-19T16:52:06;28.70;74.50
10702;DHT22;5402;50.004;8.246;2022-08-19T16:54:34;28.60;74.70
10702;DHT22;5402;50.004;8.246;2022-08-19T16:57:02;28.60;74.30
10702;DHT22;5402;50.004;8.246;2022-08-19T16:59:31;28.60;74.50
10702;DHT22;5402;50.004;8.246;2022-08-19T17:02:00;28.50;74.60
10702;DHT22;5402;50.004;8.246;2022-08-19T17:04:29;28.40;75.10
10702;DHT22;5402;50.004;8.246;2022-08-19T17:06:57;28.40;75.00
10702;DHT22;5402;50.004;8.246;2022-08-19T17:09:24;28.50;74.30
10702;DHT22;5402;50.004;8.246;2022-08-19T17:11:51;28.40;74.60
10702;DHT22;5402;50.004;8.246;2022-08-19T17:14:18;28.50;74.20
10702;DHT22;5402;50.004;8.246;2022-08-19T17:16:44;28.40;73.70
10702;DHT22;5402;50.004;8.246;2022-08-19T17:19:13;28.40;73.10
10702;DHT22;5402;50.004;8.246;2022-08-19T17:21:48;28.40;73.20
10702;DHT22;5402;50.004;8.246;2022-08-19T17:24:19;28.40;73.10
10702;DHT22;5402;50.004;8.246;2022-08-19T17:26:45;28.30;73.50
10702;DHT22;5402;50.004;8.246;2022-08-19T17:29:14;28.10;74.40
10702;DHT22;5402;50.004;8.246;2022-08-19T17:31:40;28.10;74.60
10702;DHT22;5402;50.004;8.246;2022-08-19T17:34:10;28.00;74.70
10702;DHT22;5402;50.004;8.246;2022-08-19T17:36:38;28.00;74.00
10702;DHT22;5402;50.004;8.246;2022-08-19T17:39:05;28.10;73.70
10702;DHT22;5402;50.004;8.246;2022-08-19T17:41:33;28.20;73.90
10702;DHT22;5402;50.004;8.246;2022-08-19T17:44:00;28.20;74.00
10702;DHT22;5402;50.004;8.246;2022-08-19T17:46:27;27.90;74.00
10702;DHT22;5402;50.004;8.246;2022-08-19T17:48:55;28.00;73.70
10702;DHT22;5402;50.004;8.246;2022-08-19T17:51:25;28.00;74.00
10702;DHT22;5402;50.004;8.246;2022-08-19T17:54:11;28.10;73.90
10702;DHT22;5402;50.004;8.246;2022-08-19T17:56:38;28.20;73.90
10702;DHT22;5402;50.004;8.246;2022-08-19T17:59:07;29.00;73.10
10702;DHT22;5402;50.004;8.246;2022-08-19T18:01:34;29.10;72.30
10702;DHT22;5402;50.004;8.246;2022-08-19T18:04:01;29.00;72.30
10702;DHT22;5402;50.004;8.246;2022-08-19T18:06:29;28.50;73.40
10702;DHT22;5402;50.004;8.246;2022-08-19T18:08:56;28.00;74.30
10702;DHT22;5402;50.004;8.246;2022-08-19T18:11:25;27.80;74.80
10702;DHT22;5402;50.004;8.246;2022-08-19T18:13:52;27.60;75.30
10702;DHT22;5402;50.004;8.246;2022-08-19T18:16:19;27.40;76.10
10702;DHT22;5402;50.004;8.246;2022-08-19T18:18:46;27.20;76.30
10702;DHT22;5402;50.004;8.246;2022-08-19T18:21:14;27.10;76.60
10702;DHT22;5402;50.004;8.246;2022-08-19T18:23:41;27.20;77.10
10702;DHT22;5402;50.004;8.246;2022-08-19T18:26:07;26.90;77.30
10702;DHT22;5402;50.004;8.246;2022-08-19T18:28:35;26.90;77.40
10702;DHT22;5402;50.004;8.246;2022-08-19T18:31:04;26.70;77.60
10702;DHT22;5402;50.004;8.246;2022-08-19T18:33:32;26.60;77.80
10702;DHT22;5402;50.004;8.246;2022-08-19T18:36:02;26.40;78.20
10702;DHT22;5402;50.004;8.246;2022-08-19T18:38:33;26.40;78.40
10702;DHT22;5402;50.004;8.246;2022-08-19T18:41:17;26.30;78.70
10702;DHT22;5402;50.004;8.246;2022-08-19T18:44:17;26.20;78.80
10702;DHT22;5402;50.004;8.246;2022-08-19T18:47:02;26.20;78.80
10702;DHT22;5402;50.004;8.246;2022-08-19T18:49:46;26.10;79.00
10702;DHT22;5402;50.004;8.246;2022-08-19T18:52:15;26.00;79.20
10702;DHT22;5402;50.004;8.246;2022-08-19T18:54:42;26.00;79.30
10702;DHT22;5402;50.004;8.246;2022-08-19T18:57:11;25.80;80.00
10702;DHT22;5402;50.004;8.246;2022-08-19T18:59:45;25.80;80.00
10702;DHT22;5402;50.004;8.246;2022-08-19T19:02:12;25.60;81.00
10702;DHT22;5402;50.004;8.246;2022-08-19T19:04:40;25.60;80.60
10702;DHT22;5402;50.004;8.246;2022-08-19T19:07:07;25.50;81.20
10702;DHT22;5402;50.004;8.246;2022-08-19T19:09:34;25.50;81.10
10702;DHT22;5402;50.004;8.246;2022-08-19T19:12:03;25.30;81.40
10702;DHT22;5402;50.004;8.246;2022-08-19T19:14:34;25.30;81.80
10702;DHT22;5402;50.004;8.246;2022-08-19T19:17:07;25.20;82.10
10702;DHT22;5402;50.004;8.246;2022-08-19T19:19:38;25.10;82.80
10702;DHT22;5402;50.004;8.246;2022-08-19T19:22:08;25.00;82.80
10702;DHT22;5402;50.004;8.246;2022-08-19T19:24:38;25.00;82.90
10702;DHT22;5402;50.004;8.246;2022-08-19T19:27:09;24.90;83.10
10702;DHT22;5402;50.004;8.246;2022-08-19T19:29:38;24.70;83.20
10702;DHT22;5402;50.004;8.246;2022-08-19T19:32:08;24.80;83.10
10702;DHT22;5402;50.004;8.246;2022-08-19T19:34:36;24.70;83.50
10702;DHT22;5402;50.004;8.246;2022-08-19T19:37:04;24.70;83.60
10702;DHT22;5402;50.004;8.246;2022-08-19T19:39:34;24.60;84.30
10702;DHT22;5402;50.004;8.246;2022-08-19T19:42:05;24.60;84.20
10702;DHT22;5402;50.004;8.246;2022-08-19T19:44:37;24.60;84.30
10702;DHT22;5402;50.004;8.246;2022-08-19T19:47:06;24.60;84.60
10702;DHT22;5402;50.004;8.246;2022-08-19T19:49:35;24.50;84.60
10702;DHT22;5402;50.004;8.246;2022-08-19T19:52:04;24.50;84.70
10702;DHT22;5402;50.004;8.246;2022-08-19T19:54:32;24.40;84.60
10702;DHT22;5402;50.004;8.246;2022-08-19T19:57:00;24.40;85.20
10702;DHT22;5402;50.004;8.246;2022-08-19T19:59:26;24.40;85.10
10702;DHT22;5402;50.004;8.246;2022-08-19T20:01:53;24.40;85.20
10702;DHT22;5402;50.004;8.246;2022-08-19T20:04:22;24.40;84.80
10702;DHT22;5402;50.004;8.246;2022-08-19T20:06:49;24.40;84.90
10702;DHT22;5402;50.004;8.246;2022-08-19T20:09:15;24.40;85.40
10702;DHT22;5402;50.004;8.246;2022-08-19T20:11:44;24.30;85.50
10702;DHT22;5402;50.004;8.246;2022-08-19T20:14:14;24.30;85.40
10702;DHT22;5402;50.004;8.246;2022-08-19T20:16:44;24.30;85.60
10702;DHT22;5402;50.004;8.246;2022-08-19T20:19:14;24.30;85.60
10702;DHT22;5402;50.004;8.246;2022-08-19T20:21:46;24.20;85.80
10702;DHT22;5402;50.004;8.246;2022-08-19T20:24:15;24.20;86.20
10702;DHT22;5402;50.004;8.246;2022-08-19T20:26:45;24.20;86.00
10702;DHT22;5402;50.004;8.246;2022-08-19T20:29:12;24.20;86.10
10702;DHT22;5402;50.004;8.246;2022-08-19T20:31:40;24.10;86.90
10702;DHT22;5402;50.004;8.246;2022-08-19T20:34:07;24.10;86.80
10702;DHT22;5402;50.004;8.246;2022-08-19T20:36:33;24.00;87.00
10702;DHT22;5402;50.004;8.246;2022-08-19T20:39:03;24.00;87.10
10702;DHT22;5402;50.004;8.246;2022-08-19T20:41:30;24.00;87.10
10702;DHT22;5402;50.004;8.246;2022-08-19T20:43:57;24.00;87.30
10702;DHT22;5402;50.004;8.246;2022-08-19T20:46:26;23.90;87.60
10702;DHT22;5402;50.004;8.246;2022-08-19T20:48:53;23.80;87.60
10702;DHT22;5402;50.004;8.246;2022-08-19T20:51:20;23.90;87.80
10702;DHT22;5402;50.004;8.246;2022-08-19T20:53:47;23.80;88.10
10702;DHT22;5402;50.004;8.246;2022-08-19T20:56:15;23.80;88.40
10702;DHT22;5402;50.004;8.246;2022-08-19T20:58:42;23.90;88.70
10702;DHT22;5402;50.004;8.246;2022-08-19T21:01:09;23.80;88.80
10702;DHT22;5402;50.004;8.246;2022-08-19T21:03:40;23.70;88.80
10702;DHT22;5402;50.004;8.246;2022-08-19T21:06:09;23.70;88.80